Dalhart, Texas
Current Conditions -  °F | °C
As of 5:53 AM on Friday 28 Nov 2014 (Local Time) from KDHT Reporting Station
Clear Clear  
Wind Chill: 21°   Ceiling: Unl
Heat Index: 30°   Visibility: 10mi
Dew Point: 24°   Wind: 10mph
Humidity: 79%   Direction: 220°SW
Pressure: 30.06"   Gusts: NA
Location:  36.06°N, 102.52°W
Report Text: KDHT 281153Z AUTO 22009KT 10SM CLR M01/M04 A3006 RMK AO2 SLP179 T10111044 10050 21011 58013
Loading
Personal Weather Stations






























Interactive Weather Map New forecast layout! Learn more

10-Day Weather Forecast

Advertisements
Track Severe Weather on mobile